Flight Track Log - Related Links

Times and Time Zones

All times are in EDT time to prevent confusion due to time zone crossing. See the QXE2348 flight status page for this flight to view local times or setup timezone preferences in your user account.

Time Position Orientation Groundspeed Altitude Reporting Facility
EDT Latitude Longitude Course Direction KTS MPH feet Rate Location/Type
Mon 01:51:00 PM 47.4167 -121.3861 90° East  Level FlightAware Approximate
Mon 01:52:00 PM 47.4167 -121.2551 90° East  Level FlightAware Approximate
Mon 01:53:00 PM 47.4167 -121.1240 90° East  Level FlightAware Approximate
Mon 01:54:00 PM 47.4167 -120.9930 90° East  Level FlightAware Approximate
Mon 01:55:00 PM 47.4100 -120.8624 95° East  Level FlightAware Approximate
Mon 01:56:00 PM 47.4027 -120.7318 95° East  Level FlightAware Approximate
Mon 01:57:00 PM 47.4001 -120.6009 90° East  Level FlightAware Approximate
Mon 01:58:00 PM 47.4001 -120.4699 90° East  Level FlightAware Approximate
Mon 01:59:00 PM 47.4000 -120.3389 90° East  Level FlightAware Approximate
Mon 02:00:00 PM 47.3917 -120.2087 98° East  Level FlightAware Approximate
Mon 02:01:00 PM 47.3825 -120.0786 92° East  Level FlightAware Approximate
Mon 02:02:00 PM 47.3797 -119.9477 92° East  Level FlightAware Approximate
Mon 02:03:00 PM 47.3767 -119.8168 92° East  Level FlightAware Approximate
Mon 02:04:00 PM 47.3736 -119.6860 92° East  Level FlightAware Approximate
Mon 02:05:00 PM 47.3703 -119.5551 92° East  Level FlightAware Approximate
Mon 02:06:00 PM 47.3673 -119.4397 92° East  Level FlightAware Approximate
Mon 02:07:00 PM 47.3704 -119.3244 87° East  Level FlightAware Approximate
Mon 02:08:00 PM 47.3750 -119.2090 87° East  Level FlightAware Approximate
Mon 02:09:00 PM 47.3794 -119.0937 87° East  Level FlightAware Approximate
Mon 02:10:00 PM 47.3837 -118.9783 87° East  Level FlightAware Approximate
Mon 02:11:00 PM 47.3879 -118.8630 87° East  Level FlightAware Approximate
Mon 02:12:00 PM 47.3925 -118.7343 87° East  Level FlightAware Approximate
Mon 02:13:00 PM 47.3969 -118.6056 87° East  Level FlightAware Approximate
Mon 02:14:00 PM 47.4012 -118.4769 87° East  Level FlightAware Approximate
Mon 02:15:00 PM 47.4053 -118.3481 87° East  Level FlightAware Approximate
Mon 02:16:00 PM 47.4093 -118.2194 87° East  Level FlightAware Approximate
Mon 02:17:00 PM 47.4131 -118.0906 87° East  Level FlightAware Approximate
Mon 02:18:00 PM 47.4168 -117.9618 88° East  Level FlightAware Approximate
Mon 02:19:00 PM 47.4200 -117.8330 88° East  Level FlightAware Approximate
Mon 02:20:00 PM 47.4231 -117.7041 88° East  Level FlightAware Approximate
Mon 02:21:00 PM 47.4260 -117.5753 88° East  Level FlightAware Approximate
Mon 02:22:00 PM 47.4288 -117.4464 88° East  Level FlightAware Approximate
Mon 02:23:00 PM 47.4315 -117.3175 88° East  Level FlightAware Approximate
Mon 02:24:00 PM 47.4340 -117.1886 88° East  Level FlightAware Approximate
Mon 02:25:00 PM 47.4364 -117.0597 88° East  Level FlightAware Approximate
Mon 02:26:00 PM 47.4386 -116.9308 88° East  Level FlightAware Approximate
Mon 02:27:00 PM 47.4407 -116.8018 89° East  Level FlightAware Approximate
Mon 02:28:00 PM 47.4426 -116.6729 89° East  Level FlightAware Approximate
Mon 02:29:00 PM 47.4444 -116.5439 89° East  Level FlightAware Approximate
Mon 02:30:00 PM 47.4460 -116.4152 89° East  Level FlightAware Approximate
Mon 02:31:00 PM 47.4476 -116.2865 89° East  Level FlightAware Approximate
Mon 02:32:00 PM 47.4490 -116.1577 89° East  Level FlightAware Approximate
Mon 02:33:00 PM 47.4500 -116.0290 90° East  Level FlightAware Approximate
Mon 02:34:00 PM 47.4500 -115.9002 90° East  Level FlightAware Approximate
Mon 02:35:00 PM 47.4501 -115.7703 90° East  Level FlightAware Approximate
Mon 02:36:00 PM 47.4500 -115.6404 90° East  Level FlightAware Approximate
Mon 02:37:00 PM 47.4177 -115.5204 110° East  Level FlightAware Approximate
Mon 02:38:00 PM 47.3873 -115.3987 110° East  Level FlightAware Approximate
Mon 02:39:00 PM 47.3568 -115.2770 110° East  Level FlightAware Approximate
Mon 02:40:00 PM 47.3264 -115.1554 110° East  Level FlightAware Approximate
Mon 02:41:00 PM 47.2949 -115.0346 116° Southeast  Level FlightAware Approximate
Mon 02:42:00 PM 47.2667 -114.9127 90° East  Level FlightAware Approximate
Mon 02:43:00 PM 47.2372 -114.7918 112° Southeast  Level FlightAware Approximate
Mon 02:44:00 PM 47.2022 -114.6733 116° Southeast  Level FlightAware Approximate
Mon 02:45:00 PM 47.1714 -114.5524 110° East  Level FlightAware Approximate
Mon 02:46:00 PM 47.1229 -114.4457 126° Southeast  Level FlightAware Approximate
Mon 02:47:00 PM 47.0689 -114.3440 129° Southeast  Level FlightAware Approximate
Mon 02:48:00 PM 47.0124 -114.2458 146° Southeast  Level FlightAware Approximate
Mon 02:49:00 PM 46.9523 -114.1545 126° Southeast  Level FlightAware Approximate
Mon 02:50:00 PM 46.9163 -114.0906 146° Southeast  Level Estimated
Mon 02:51:00 PM 46.9163 -114.0906 146° Southeast  Level Estimated
Mon 02:52:00 PM 46.9163 -114.0906 146° Southeast  Level Estimated
Mon 02:53:00 PM 46.9163 -114.0906 270° West  Level Estimated
Mon 02:54:00 PM 46.9163 -114.0906 90° East  Level Estimated
Mon 02:55:00 PM 46.9163 -114.0906 270° West  Level Estimated
Mon 02:56:00 PM 46.9163 -114.0906 90° East  Level Estimated
Mon 02:57:00 PM 46.9163 -114.0906 270° West  Level Estimated
Mon 02:58:00 PM 46.9163 -114.0906 90° East  Level Estimated
Mon 02:59:00 PM 46.9163 -114.0906 270° West  Level Estimated
Mon 03:00:00 PM 46.9163 -114.0906 90° East  Level Estimated

Login

Don't have an account? Register now (free) for customized features, flight alerts, and more!